createdAt,value
2019-05-17T00:00:01.521Z,96218.11
2019-05-17T00:04:07.029Z,96211.64
2019-05-17T00:08:08.644Z,96204.36
2019-05-17T00:12:10.622Z,96206.06
2019-05-17T00:16:12.533Z,96203.67
2019-05-17T00:20:17.334Z,96197.95
2019-05-17T00:24:19.478Z,96192.80
2019-05-17T00:28:21.381Z,96186.29
2019-05-17T00:32:23.278Z,96177.06
2019-05-17T00:36:26.910Z,96173.11
2019-05-17T00:40:30.014Z,96169.00
2019-05-17T00:44:31.908Z,96164.12
2019-05-17T00:48:33.907Z,96156.27
2019-05-17T00:52:36.788Z,96155.28
2019-05-17T00:56:39.924Z,96157.70
2019-05-17T01:00:41.835Z,96153.75
2019-05-17T01:04:43.756Z,96148.55
2019-05-17T01:08:47.482Z,96143.95
2019-05-17T01:12:49.322Z,96139.13
2019-05-17T01:16:51.306Z,96138.25
2019-05-17T01:20:53.219Z,96134.09
2019-05-17T01:24:56.958Z,96132.02
2019-05-17T01:28:59.173Z,96130.53
2019-05-17T01:33:01.215Z,96123.31
2019-05-17T01:37:03.123Z,96125.02
2019-05-17T01:41:07.011Z,96110.65
2019-05-17T01:45:10.325Z,96131.55
2019-05-17T01:49:12.246Z,96129.05
2019-05-17T01:53:16.455Z,96127.45
2019-05-17T01:57:17.760Z,96132.38
2019-05-17T02:01:19.650Z,96135.06
2019-05-17T02:05:21.642Z,96127.52
2019-05-17T02:09:34.917Z,96132.30
2019-05-17T02:13:27.438Z,96126.53
2019-05-17T02:17:29.488Z,96130.55
2019-05-17T02:21:31.413Z,96122.76
2019-05-17T02:25:33.310Z,96131.30
2019-05-17T02:29:35.220Z,96125.66
2019-05-17T02:33:37.192Z,96122.88
2019-05-17T02:37:42.953Z,96115.23
2019-05-17T02:41:44.242Z,96119.19
2019-05-17T02:45:46.142Z,96106.37
2019-05-17T02:49:48.093Z,96113.23
2019-05-17T02:53:52.553Z,96115.88
2019-05-17T02:57:53.616Z,96118.23
2019-05-17T03:01:55.497Z,96112.33
2019-05-17T03:05:57.413Z,96116.10
2019-05-17T03:10:13.888Z,96110.95
2019-05-17T03:14:04.119Z,96104.31
2019-05-17T03:18:06.320Z,96104.94
2019-05-17T03:22:13.142Z,96104.75
2019-05-17T03:26:15.269Z,96104.31
2019-05-17T03:30:19.275Z,96111.14
2019-05-17T03:34:26.708Z,96103.74
2019-05-17T03:38:27.527Z,96100.80
2019-05-17T03:42:29.424Z,96098.59
2019-05-17T03:46:33.462Z,96104.19
2019-05-17T03:50:35.402Z,96104.38
2019-05-17T03:54:37.283Z,96109.22
2019-05-17T03:58:39.178Z,96109.22
2019-05-17T04:02:44.621Z,96105.06
2019-05-17T04:06:44.690Z,96106.83
2019-05-17T04:10:46.588Z,96106.83
2019-05-17T04:14:48.506Z,96104.76
2019-05-17T04:18:53.316Z,96111.28
2019-05-17T04:22:58.641Z,96114.22
2019-05-17T04:27:03.627Z,96110.65
2019-05-17T04:31:05.091Z,96105.79
2019-05-17T04:35:07.306Z,96112.83
2019-05-17T04:39:13.106Z,96109.19
2019-05-17T04:43:13.854Z,96108.84
2019-05-17T04:47:15.935Z,96107.72
2019-05-17T04:51:17.840Z,96111.59
2019-05-17T04:55:22.827Z,96108.20
2019-05-17T04:59:24.299Z,96102.17
2019-05-17T05:03:26.516Z,96102.55
2019-05-17T05:07:29.506Z,96097.02
2019-05-17T05:11:32.869Z,96101.55
2019-05-17T05:15:44.924Z,96104.78
2019-05-17T05:19:46.858Z,96095.25
2019-05-17T05:23:48.754Z,96102.05
2019-05-17T05:27:51.648Z,96103.98
2019-05-17T05:31:53.543Z,96104.19
2019-05-17T05:35:56.090Z,96093.91
2019-05-17T05:40:07.132Z,96091.43
2019-05-17T05:44:09.101Z,96089.19
2019-05-17T05:48:12.877Z,96091.52
2019-05-17T05:52:15.079Z,96095.48
2019-05-17T05:56:17.005Z,96086.83
2019-05-17T06:00:22.126Z,96091.90
2019-05-17T06:04:24.330Z,96094.69
2019-05-17T06:08:26.191Z,96099.25
2019-05-17T06:12:28.366Z,96093.53
2019-05-17T06:16:32.124Z,96094.22
2019-05-17T06:20:33.908Z,96095.36
2019-05-17T06:24:35.843Z,96098.48
2019-05-17T06:28:37.739Z,96102.44
2019-05-17T06:32:42.721Z,96102.52
2019-05-17T06:36:43.439Z,96103.38
2019-05-17T06:40:45.347Z,96099.95
2019-05-17T06:44:47.369Z,96090.22
2019-05-17T06:48:50.080Z,96085.70
2019-05-17T06:52:53.235Z,96091.33
2019-05-17T06:56:55.275Z,96089.38
2019-05-17T07:00:57.177Z,96084.47
2019-05-17T07:05:01.433Z,96077.30
2019-05-17T07:09:05.298Z,96077.28
2019-05-17T07:13:10.734Z,96069.81
2019-05-17T07:17:12.359Z,96078.43
2019-05-17T07:21:16.247Z,96070.36
2019-05-17T07:25:19.819Z,96069.69
2019-05-17T07:29:22.975Z,96066.03
2019-05-17T07:33:24.897Z,96063.88
2019-05-17T07:37:26.827Z,96058.09
2019-05-17T07:41:29.853Z,96064.05
2019-05-17T07:45:31.868Z,96055.66
2019-05-17T07:49:33.804Z,96055.50
2019-05-17T07:53:35.725Z,96051.09
2019-05-17T07:57:37.638Z,96042.90
2019-05-17T08:01:41.268Z,96039.47
2019-05-17T08:05:43.399Z,96043.75
2019-05-17T08:09:45.317Z,96036.03
2019-05-17T08:13:47.241Z,96033.12
2019-05-17T08:17:50.170Z,96024.66
2019-05-17T08:21:52.237Z,96012.97
2019-05-17T08:25:56.292Z,95939.34
2019-05-17T08:29:59.700Z,96009.81
2019-05-17T08:34:01.527Z,96010.34
2019-05-17T08:38:03.429Z,96010.74
2019-05-17T08:42:09.627Z,96003.77
2019-05-17T08:46:10.727Z,96002.60
2019-05-17T08:50:12.970Z,95999.90
2019-05-17T08:54:14.904Z,95996.38
2019-05-17T08:58:16.829Z,95995.39
2019-05-17T09:02:19.907Z,95990.47
2019-05-17T09:06:21.929Z,95998.19
2019-05-17T09:10:24.625Z,95991.87
2019-05-17T09:14:26.538Z,95992.63
2019-05-17T09:18:30.205Z,95987.01
2019-05-17T09:22:33.164Z,95985.24
2019-05-17T09:26:35.120Z,95981.41
2019-05-17T09:30:37.096Z,95985.88
2019-05-17T09:34:40.379Z,95984.45
2019-05-17T09:38:43.552Z,95981.30
2019-05-17T09:42:45.455Z,95984.63
2019-05-17T09:46:47.433Z,95981.98
2019-05-17T09:50:50.485Z,95968.46
2019-05-17T09:54:52.541Z,95967.34
2019-05-17T09:58:54.449Z,95960.13
2019-05-17T10:02:56.725Z,95961.95
2019-05-17T10:06:59.359Z,95958.41
2019-05-17T10:11:08.414Z,95951.41
2019-05-17T10:15:10.011Z,95950.01
2019-05-17T10:19:11.589Z,95948.29
2019-05-17T10:23:13.572Z,95935.49
2019-05-17T10:27:15.500Z,95931.48
2019-05-17T10:31:19.723Z,95932.25
2019-05-17T10:35:21.828Z,95923.52
2019-05-17T10:39:23.719Z,95926.80
2019-05-17T10:43:25.642Z,95922.52
2019-05-17T10:47:29.921Z,95928.55
2019-05-17T10:51:31.308Z,95929.89
2019-05-17T10:55:33.218Z,95925.95
2019-05-17T10:59:35.135Z,95913.00
2019-05-17T11:03:39.581Z,95920.92
2019-05-17T11:07:40.651Z,95918.88
2019-05-17T11:11:42.588Z,95911.28
2019-05-17T11:15:44.482Z,95907.25
2019-05-17T11:19:46.405Z,95900.42
2019-05-17T11:23:48.325Z,95830.44
2019-05-17T11:27:50.259Z,95897.14
2019-05-17T11:31:52.171Z,95896.79
2019-05-17T11:35:54.559Z,95895.69
2019-05-17T11:39:56.453Z,95886.35
2019-05-17T11:43:58.376Z,95888.23
2019-05-17T11:48:00.292Z,95884.31
2019-05-17T11:52:02.211Z,95881.39
2019-05-17T11:56:04.110Z,95876.69
2019-05-17T12:00:09.341Z,95883.26
2019-05-17T12:04:11.282Z,95882.98
2019-05-17T12:08:13.174Z,95885.08
2019-05-17T12:12:15.088Z,95879.69
2019-05-17T12:16:17.009Z,95874.76
2019-05-17T12:20:19.623Z,95868.56
2019-05-17T12:24:21.538Z,95864.78
2019-05-17T12:28:23.450Z,95862.98
2019-05-17T12:32:25.432Z,95857.50
2019-05-17T12:36:27.354Z,95859.28
2019-05-17T12:40:29.257Z,95848.85
2019-05-17T12:44:31.169Z,95854.13
2019-05-17T12:48:33.090Z,95851.81
2019-05-17T12:52:35.002Z,95848.08
2019-05-17T12:56:36.927Z,95841.73
2019-05-17T13:00:38.830Z,95839.52
2019-05-17T13:04:40.744Z,95842.44
2019-05-17T13:08:42.671Z,95834.30
2019-05-17T13:12:44.603Z,95827.13
2019-05-17T13:16:46.517Z,95831.16
2019-05-17T13:20:48.418Z,95827.58
2019-05-17T13:24:50.336Z,95830.43
2019-05-17T13:28:52.336Z,95824.95
2019-05-17T13:32:54.265Z,95823.73
2019-05-17T13:36:56.504Z,95815.03
2019-05-17T13:40:58.405Z,95817.16
2019-05-17T13:45:00.452Z,95805.71
2019-05-17T13:49:02.475Z,95807.48
2019-05-17T13:53:04.511Z,95803.31
2019-05-17T13:57:06.448Z,95802.55
2019-05-17T14:01:09.734Z,95795.23
2019-05-17T14:05:11.918Z,95801.44
2019-05-17T14:09:13.815Z,95802.28
2019-05-17T14:13:15.729Z,95803.12
2019-05-17T14:17:18.595Z,95805.06
2019-05-17T14:21:20.785Z,95800.64
2019-05-17T14:25:22.698Z,95803.50
2019-05-17T14:29:25.635Z,95801.34
2019-05-17T14:33:27.702Z,95806.47
2019-05-17T14:37:29.616Z,95806.19
2019-05-17T14:41:31.524Z,95804.39
2019-05-17T14:45:33.428Z,95807.80
2019-05-17T14:49:35.339Z,95797.30
2019-05-17T14:53:37.248Z,95805.05
2019-05-17T14:57:42.765Z,95802.47
2019-05-17T15:01:42.790Z,95796.89
2019-05-17T15:05:44.794Z,95793.89
2019-05-17T15:09:46.709Z,95784.63
2019-05-17T15:13:48.709Z,95793.87
2019-05-17T15:17:50.613Z,95788.25
2019-05-17T15:21:52.517Z,95784.78
2019-05-17T15:25:54.438Z,95790.91
2019-05-17T15:29:56.332Z,95777.65
2019-05-17T15:33:58.252Z,95775.91
2019-05-17T15:38:00.213Z,95772.00
2019-05-17T15:42:02.948Z,95769.41
2019-05-17T15:46:04.922Z,95764.13
2019-05-17T15:50:08.817Z,95759.98
2019-05-17T15:54:10.980Z,95754.56
2019-05-17T15:58:12.898Z,95737.76
2019-05-17T16:02:14.804Z,95746.11
2019-05-17T16:06:16.792Z,95736.47
2019-05-17T16:10:20.012Z,95740.48
2019-05-17T16:14:21.907Z,95741.20
2019-05-17T16:18:23.819Z,95734.59
2019-05-17T16:22:25.722Z,95736.45
2019-05-17T16:26:27.908Z,95731.45
2019-05-17T16:30:29.883Z,95734.05
2019-05-17T16:34:31.802Z,95733.07
2019-05-17T16:38:33.721Z,95734.91
2019-05-17T16:42:35.802Z,95728.63
2019-05-17T16:46:37.715Z,95737.34
2019-05-17T16:50:39.689Z,95723.56
2019-05-17T16:54:41.604Z,95728.97
2019-05-17T16:58:44.475Z,95728.67
2019-05-17T17:02:46.386Z,95715.23
2019-05-17T17:06:48.289Z,95719.16
2019-05-17T17:10:50.258Z,95713.70
2019-05-17T17:14:52.131Z,95717.19
2019-05-17T17:18:54.115Z,95726.10
2019-05-17T17:22:57.197Z,95729.94
2019-05-17T17:27:00.295Z,95723.08
2019-05-17T17:31:02.428Z,95732.09
2019-05-17T17:35:06.844Z,95727.45
2019-05-17T17:39:08.947Z,95722.21
2019-05-17T17:43:11.004Z,95733.31
2019-05-17T17:47:12.929Z,95725.61
2019-05-17T17:51:14.867Z,95727.59
2019-05-17T17:55:16.867Z,95725.28
2019-05-17T17:59:18.785Z,95728.98
2019-05-17T18:03:20.701Z,95716.78
2019-05-17T18:07:23.486Z,95722.91
2019-05-17T18:11:25.414Z,95722.25
2019-05-17T18:15:34.918Z,95728.39
2019-05-17T18:19:36.814Z,95731.77
2019-05-17T18:23:38.737Z,95733.83
2019-05-17T18:27:40.728Z,95745.90
2019-05-17T18:31:42.641Z,95745.39
2019-05-17T18:35:44.701Z,95751.45
2019-05-17T18:39:46.614Z,95753.06
2019-05-17T18:43:50.171Z,95756.59
2019-05-17T18:47:52.364Z,95757.05
2019-05-17T18:51:54.314Z,95753.73
2019-05-17T18:55:56.247Z,95760.20
2019-05-17T18:59:58.186Z,95756.88
2019-05-17T19:04:00.099Z,95765.23
2019-05-17T19:08:02.342Z,95773.16
2019-05-17T19:12:04.393Z,95779.97
2019-05-17T19:16:07.341Z,95779.58
2019-05-17T19:20:09.680Z,95784.55
2019-05-17T19:24:11.573Z,95715.81
2019-05-17T19:28:13.490Z,95787.63
2019-05-17T19:32:15.494Z,95780.26
2019-05-17T19:36:17.397Z,95788.50
2019-05-17T19:40:19.524Z,95792.09
2019-05-17T19:44:21.444Z,95721.38
2019-05-17T19:48:23.349Z,95796.27
2019-05-17T19:52:25.313Z,95796.56
2019-05-17T19:56:27.235Z,95793.69
2019-05-17T20:00:29.763Z,95795.84
2019-05-17T20:04:31.704Z,95799.31
2019-05-17T20:08:33.783Z,95797.22
2019-05-17T20:12:35.696Z,95802.02
2019-05-17T20:16:37.686Z,95800.72
2019-05-17T20:20:39.597Z,95798.34
2019-05-17T20:24:41.516Z,95802.08
2019-05-17T20:28:43.497Z,95798.88
2019-05-17T20:32:45.509Z,95799.67
2019-05-17T20:36:47.412Z,95804.72
2019-05-17T20:40:49.388Z,95806.27
2019-05-17T20:44:51.311Z,95803.58
2019-05-17T20:48:54.904Z,95807.00
2019-05-17T20:52:56.814Z,95808.84
2019-05-17T20:56:58.721Z,95802.45
2019-05-17T21:01:00.654Z,95792.36
2019-05-17T21:05:02.733Z,95806.38
2019-05-17T21:09:06.740Z,95800.75
2019-05-17T21:13:08.645Z,95798.33
2019-05-17T21:17:10.597Z,95795.41
2019-05-17T21:21:12.563Z,95790.03
2019-05-17T21:25:14.707Z,95792.09
2019-05-17T21:29:16.645Z,95791.76
2019-05-17T21:33:18.524Z,95792.09
2019-05-17T21:37:20.535Z,95792.52
2019-05-17T21:41:22.511Z,95792.65
2019-05-17T21:45:24.431Z,95786.98
2019-05-17T21:49:26.322Z,95787.73
2019-05-17T21:53:28.254Z,95793.75
2019-05-17T21:57:30.149Z,95795.03
2019-05-17T22:01:34.753Z,95800.94
2019-05-17T22:05:36.650Z,95799.19
2019-05-17T22:09:39.517Z,95797.70
2019-05-17T22:13:41.428Z,95797.64
2019-05-17T22:17:43.320Z,95798.12
2019-05-17T22:21:45.239Z,95792.79
2019-05-17T22:25:47.196Z,95801.06
2019-05-17T22:29:49.106Z,95797.02
2019-05-17T22:33:50.986Z,95796.44
2019-05-17T22:37:52.906Z,95796.95
2019-05-17T22:41:54.783Z,95791.83
2019-05-17T22:45:56.805Z,95790.12
2019-05-17T22:49:58.694Z,95783.69
2019-05-17T22:54:00.613Z,95782.11
2019-05-17T22:58:02.535Z,95781.56
2019-05-17T23:02:05.510Z,95784.03
2019-05-17T23:06:07.539Z,95784.54
2019-05-17T23:10:09.625Z,95780.62
2019-05-17T23:14:11.538Z,95772.73
2019-05-17T23:18:13.459Z,95775.53
2019-05-17T23:22:15.347Z,95776.22
2019-05-17T23:26:17.249Z,95779.63
2019-05-17T23:30:19.213Z,95773.08
2019-05-17T23:34:21.159Z,95778.31
2019-05-17T23:38:23.056Z,95775.88
2019-05-17T23:42:24.944Z,95776.65
2019-05-17T23:46:26.843Z,95776.02
2019-05-17T23:50:28.749Z,95773.59
2019-05-17T23:54:30.636Z,95767.69
2019-05-17T23:58:32.542Z,95769.89
